Terminal Aerodrome Forecast
Issued by NWS Duluth, MN

Home | Current Version | Previous Version | Text Only | Print | Product List | Glossary On
Versions: 1 2 3 4 5 6 7 8 9 10 11 12 13 14 15 16 17 18 19 20 21 22 23 24 25 26 27 28 29 30 31 32 33 34 35 36 37
000
FTUS43 KDLH 292300 RRA
TAFDLH
TAF
KDLH 292341Z 3000/3024 13004KT 2SM -RA BR OVC002
      TEMPO 3000/3002 1/2SM -DZ FG OVC001
     FM300200 VRB03KT 1/2SM FG OVC001
     FM301500 04008KT 4SM BR OVC004
     FM301800 08008KT P6SM VCSH BKN025=

USA.gov is the U.S. government's official web portal to all federal, state and local government web resources and services.